Terminal Aerodrome Forecast
Issued by NWS Sterling, VA

Current Version | Previous Version | Graphics & Text | Print | Product List | Glossary On
Versions: 1 2 3 4 5 6 7 8 9 10 11 12 13 14 15 16 17 18 19 20 21 22 23 24 25 26
795
FTUS41 KLWX 220209 AAA
TAFIAD
TAF AMD
KIAD 220209Z 2202/2306 15008KT P6SM OVC040
     FM220300 14008KT P6SM -SHRA OVC025
     FM220800 14008KT 5SM -SHRA OVC008
     FM221800 22005KT P6SM BKN015
     FM222100 24005KT P6SM BKN035
     FM230200 30004KT P6SM SCT050
     FM230400 33004KT P6SM SCT250=

USA.gov is the U.S. government's official web portal to all federal, state and local government web resources and services.